메인 페이지
METAR-TAF:

METAR-TAF

공항 :

Lawson Army Airfield

콜럼버스, 조지아, 미국

위도: 32-20N, 경도: 084-50W, 고도: 71m

현재 날씨관측

예보는 26분 전, 13:56시(UTC)에 발표되었습니다.
무풍
온도 26°C
습도 79%
기압 1018 hPa
시정: 16.1km
고도 9000ft 상공 구름 많음

METAR: KLSF 291356Z AUTO 00000KT 10SM BKN090 26/22 A3005 RMK AO2 SLP179 T02580216 $

시각: 10:22 (14:22 UTC)

예보

예보는 2 시간 52분 전, 11:30시(UTC)에 발표되었습니다.
예보 대상 시간: 29일 11시부터 30일 15시까지 (UTC)
6kt
시정 10km 이상
고도 2000ft 상공 구름 보통
고도 11000ft 상공 구름 많음
전환 중
29일 13시부터 29일 14시까지 (UTC)
남남서6kt
시정 10km 이상
고도 2000ft 상공 구름 많음
고도 10000ft 상공 구름 많음
전환 중
29일 17시부터 29일 18시까지 (UTC)
남남서6kt
시정: 8000m
고도 1500ft 상공 구름 많음
고도 5000ft 상공 흐림
약한소나기
일시적
29일 19시부터 30일 00시까지 (UTC)
여러 방향의 바람 15kt, 순간 최대 풍속 25kt
시정: 4800m
고도 1500ft 상공 흐림, 적란운.
뇌우, 비
전환 중
30일 03시부터 30일 04시까지 (UTC)
여러 방향의 바람 6kt
시정 10km 이상
고도 900ft 상공 구름 많음
시계 내 소나기
전환 중
30일 08시부터 30일 09시까지 (UTC)
여러 방향의 바람 6kt
시정: 4800m
고도 100ft 상공 흐림
박무

TAF: KLSF 291130Z 2911/3015 18006KT 9999 SCT020 BKN110 QNH2996INS BECMG 2913/2914 21006KT 9999 BKN020 BKN100 QNH3001INS BECMG 2917/2918 20006KT 8000 -SHRA BKN015 OVC050 QNH2996INS TEMPO 2919/3000 VRB15G25KT 4800 TSRA OVC015CB BECMG 3003/3004 VRB06KT 9999 VCSH BKN009 QNH2999INS BECMG 3008/3009 VRB06KT 4800 BR OVC001 QNH2997INS TX29/2919Z TN19/2911Z

4,000개 이상의 공항 관측 자료 및 예보 (METAR 및 TAF 보고).

지도상에서 검색 가능한 기상관측소가 노란 점과 빨간 점으로 표시되어 있습니다.

기상관측소 명을 보려면 표시 위로 마우스를 이동하세요.

날씨 관측과 예보를 보려면 클릭하세요.

지도 변경 : 확대하려면 엑스 표시가 있는 녹색 버튼, 축소하려면 빼기 표시가 있는 녹색 버튼, 다음 페이지의 지도를 보려면 녹색 화살표를 클릭하세요.


METAR-TAF: